createdAt,value
2022-12-20T00:02:03.234Z,17.50
2022-12-20T00:04:58.022Z,15.70
2022-12-20T00:07:53.412Z,15.90
2022-12-20T00:10:52.044Z,13.40
2022-12-20T00:16:36.016Z,14.20
2022-12-20T00:19:12.184Z,13.50
2022-12-20T00:22:00.024Z,12.00
2022-12-20T00:24:42.004Z,12.10
2022-12-20T00:27:36.991Z,10.90
2022-12-20T00:30:31.995Z,11.50
2022-12-20T00:33:20.000Z,11.50
2022-12-20T00:35:55.155Z,14.00
2022-12-20T00:38:42.996Z,13.50
2022-12-20T00:41:20.532Z,12.20
2022-12-20T00:44:08.991Z,23.50
2022-12-20T00:46:44.275Z,20.60
2022-12-20T00:49:32.020Z,15.30
2022-12-20T00:52:14.193Z,16.00
2022-12-20T00:55:09.027Z,12.70
2022-12-20T00:58:04.001Z,10.70
2022-12-20T01:00:59.077Z,12.00
2022-12-20T01:03:54.090Z,11.90
2022-12-20T01:06:50.205Z,12.40
2022-12-20T01:09:44.988Z,13.00
2022-12-20T01:12:39.984Z,15.30
2022-12-20T01:15:36.015Z,14.30
2022-12-20T01:18:30.988Z,14.00
2022-12-20T01:21:26.991Z,13.00
2022-12-20T01:24:16.162Z,14.90
2022-12-20T01:27:04.192Z,15.70
2022-12-20T01:29:59.980Z,15.40
2022-12-20T01:32:47.986Z,11.10
2022-12-20T01:35:23.140Z,10.00
2022-12-20T01:38:10.978Z,15.20
2022-12-20T01:40:53.000Z,12.80
2022-12-20T01:43:55.185Z,14.60
2022-12-20T01:46:39.199Z,12.50
2022-12-20T01:49:38.192Z,17.60
2022-12-20T01:52:58.008Z,22.40
2022-12-20T01:55:54.994Z,21.10
2022-12-20T01:58:43.978Z,21.20
2022-12-20T02:01:39.067Z,20.40
2022-12-20T02:04:33.998Z,21.00
2022-12-20T02:07:32.989Z,21.50
2022-12-20T02:10:28.978Z,20.80
2022-12-20T02:13:22.982Z,20.10
2022-12-20T02:16:12.127Z,20.90
2022-12-20T02:19:08.987Z,15.50
2022-12-20T02:22:29.972Z,22.30
2022-12-20T02:25:24.979Z,23.90
2022-12-20T02:28:18.980Z,21.20
2022-12-20T02:31:01.958Z,18.20
2022-12-20T02:33:53.976Z,23.20
2022-12-20T02:36:29.112Z,24.40
2022-12-20T02:39:26.963Z,24.20
2022-12-20T02:42:24.021Z,20.70
2022-12-20T02:45:22.990Z,18.80
2022-12-20T02:48:22.959Z,19.20
2022-12-20T02:51:18.975Z,16.00
2022-12-20T02:54:13.964Z,14.20
2022-12-20T02:57:15.956Z,11.20
2022-12-20T03:00:26.963Z,14.50
2022-12-20T03:03:30.999Z,17.00
2022-12-20T03:06:26.037Z,16.10
2022-12-20T03:09:20.965Z,15.10
2022-12-20T03:12:16.013Z,17.40
2022-12-20T03:15:11.154Z,18.30
2022-12-20T03:18:06.976Z,16.30
2022-12-20T03:20:55.967Z,17.70
2022-12-20T03:23:31.126Z,17.20
2022-12-20T03:26:18.955Z,17.20
2022-12-20T03:28:54.099Z,15.20
2022-12-20T03:31:42.962Z,15.90
2022-12-20T03:34:24.943Z,19.50
2022-12-20T03:37:19.960Z,20.50
2022-12-20T03:40:14.952Z,21.80
2022-12-20T03:43:09.963Z,20.60
2022-12-20T03:46:04.987Z,19.90
2022-12-20T03:48:52.963Z,21.00
2022-12-20T03:51:47.966Z,21.40
2022-12-20T03:54:35.949Z,25.60
2022-12-20T03:57:11.106Z,24.80
2022-12-20T03:59:59.191Z,21.60
2022-12-20T04:02:41.128Z,20.20
2022-12-20T04:05:36.162Z,19.30
2022-12-20T04:08:30.958Z,20.60
2022-12-20T04:11:25.960Z,19.20
2022-12-20T04:14:14.091Z,17.30
2022-12-20T04:17:01.967Z,17.80
2022-12-20T04:19:43.953Z,16.80
2022-12-20T04:22:38.958Z,12.60
2022-12-20T04:25:34.950Z,20.50
2022-12-20T04:28:29.948Z,22.00
2022-12-20T04:31:25.000Z,23.50
2022-12-20T04:34:19.942Z,22.10
2022-12-20T04:37:15.144Z,19.20
2022-12-20T04:40:09.945Z,19.00
2022-12-20T04:42:58.166Z,17.70
2022-12-20T04:45:33.083Z,15.40
2022-12-20T04:51:42.952Z,12.40
2022-12-20T04:54:39.958Z,13.70
2022-12-20T04:57:34.954Z,12.10
2022-12-20T05:00:29.929Z,13.30
2022-12-20T05:03:24.992Z,12.90
2022-12-20T05:06:13.936Z,15.00
2022-12-20T05:08:55.951Z,14.90
2022-12-20T05:11:50.939Z,13.50
2022-12-20T05:14:38.946Z,15.00
2022-12-20T05:17:33.976Z,15.90
2022-12-20T05:20:28.934Z,15.30
2022-12-20T05:23:44.144Z,15.70
2022-12-20T05:26:41.926Z,16.20
2022-12-20T05:29:36.944Z,14.80
2022-12-20T05:32:25.131Z,17.20
2022-12-20T05:35:07.140Z,20.10
2022-12-20T05:37:54.937Z,21.30
2022-12-20T05:40:30.118Z,20.70
2022-12-20T05:43:24.940Z,22.30
2022-12-20T05:46:21.009Z,23.50
2022-12-20T05:49:09.148Z,24.10
2022-12-20T05:51:50.932Z,23.70
2022-12-20T05:54:45.931Z,21.90
2022-12-20T05:57:33.936Z,15.30
2022-12-20T06:00:11.080Z,14.60
2022-12-20T06:02:59.087Z,14.00
2022-12-20T06:05:34.061Z,15.90
2022-12-20T06:08:21.930Z,13.60
2022-12-20T06:10:57.070Z,14.60
2022-12-20T06:13:44.930Z,13.00
2022-12-20T06:16:28.062Z,13.90
2022-12-20T06:19:22.994Z,15.20
2022-12-20T06:22:17.938Z,14.20
2022-12-20T06:25:12.911Z,15.20
2022-12-20T06:28:07.951Z,15.80
2022-12-20T06:31:06.955Z,17.10
2022-12-20T06:34:02.628Z,16.20
2022-12-20T06:36:50.957Z,10.90
2022-12-20T06:39:26.112Z,13.40
2022-12-20T06:42:13.919Z,19.50
2022-12-20T06:44:49.048Z,21.20
2022-12-20T06:47:36.940Z,22.20
2022-12-20T06:50:13.062Z,20.10
2022-12-20T06:53:00.936Z,21.00
2022-12-20T06:55:57.920Z,21.00
2022-12-20T06:58:45.936Z,22.60
2022-12-20T07:01:21.245Z,24.00
2022-12-20T07:04:08.923Z,24.20
2022-12-20T07:06:44.063Z,24.80
2022-12-20T07:09:31.916Z,24.70
2022-12-20T07:12:13.939Z,22.20
2022-12-20T07:15:08.927Z,22.90
2022-12-20T07:18:03.948Z,20.20
2022-12-20T07:20:58.945Z,15.80
2022-12-20T07:23:46.912Z,14.90
2022-12-20T07:26:28.926Z,15.70
2022-12-20T07:29:23.906Z,11.30
2022-12-20T07:32:14.005Z,23.30
2022-12-20T07:34:49.057Z,24.30
2022-12-20T07:37:43.934Z,25.70
2022-12-20T07:40:38.919Z,26.20
2022-12-20T07:43:33.932Z,27.60
2022-12-20T07:46:29.988Z,22.60
2022-12-20T07:49:24.913Z,23.60
2022-12-20T07:52:13.934Z,27.90
2022-12-20T07:54:51.152Z,23.30
2022-12-20T07:57:48.919Z,29.20
2022-12-20T08:00:24.041Z,31.80
2022-12-20T08:03:17.973Z,28.40
2022-12-20T08:05:56.425Z,29.60
2022-12-20T08:08:45.918Z,33.40
2022-12-20T08:11:21.098Z,33.00
2022-12-20T08:14:08.903Z,35.70
2022-12-20T08:16:44.139Z,30.30
2022-12-20T08:19:32.731Z,27.80
2022-12-20T08:22:08.047Z,25.90
2022-12-20T08:24:55.908Z,24.70
2022-12-20T08:27:31.105Z,26.00
2022-12-20T08:30:18.918Z,23.30
2022-12-20T08:32:54.038Z,22.90
2022-12-20T08:35:41.910Z,22.30
2022-12-20T08:38:17.041Z,23.70
2022-12-20T08:41:25.892Z,22.50
2022-12-20T08:44:20.916Z,25.50
2022-12-20T08:47:15.984Z,33.20
2022-12-20T08:50:10.908Z,33.30
2022-12-20T08:53:05.986Z,35.00
2022-12-20T08:56:01.000Z,36.70
2022-12-20T08:58:56.888Z,37.70
2022-12-20T09:01:51.920Z,29.60
2022-12-20T09:04:47.084Z,25.20
2022-12-20T09:07:42.908Z,33.00
2022-12-20T09:10:42.824Z,30.70
2022-12-20T09:13:43.948Z,32.80
2022-12-20T09:16:44.905Z,33.90
2022-12-20T09:19:39.897Z,32.80
2022-12-20T09:22:34.950Z,31.70
2022-12-20T09:25:29.953Z,31.60
2022-12-20T09:28:26.891Z,29.80
2022-12-20T09:31:28.963Z,26.20
2022-12-20T09:34:23.872Z,27.40
2022-12-20T09:37:12.931Z,30.50
2022-12-20T09:39:48.064Z,31.80
2022-12-20T09:42:36.908Z,26.70
2022-12-20T09:45:39.294Z,29.10
2022-12-20T09:48:56.889Z,26.60
2022-12-20T09:52:16.870Z,27.00
2022-12-20T09:55:29.899Z,27.80
2022-12-20T09:58:45.323Z,25.20
2022-12-20T10:01:41.962Z,27.60
2022-12-20T10:04:42.234Z,25.00
2022-12-20T10:07:51.894Z,26.90
2022-12-20T10:11:08.883Z,29.70
2022-12-20T10:17:32.048Z,29.00
2022-12-20T10:20:50.097Z,28.60
2022-12-20T10:26:40.911Z,20.00
2022-12-20T10:29:16.240Z,25.20
2022-12-20T10:32:07.152Z,24.10
2022-12-20T10:34:48.165Z,31.80
2022-12-20T10:38:00.030Z,30.80
2022-12-20T10:41:21.985Z,30.00
2022-12-20T10:44:29.951Z,29.90
2022-12-20T10:47:43.040Z,22.80
2022-12-20T10:50:29.905Z,22.70
2022-12-20T10:53:17.870Z,26.50
2022-12-20T10:56:30.894Z,27.70
2022-12-20T10:59:25.713Z,24.70
2022-12-20T11:02:01.820Z,26.20
2022-12-20T11:05:30.938Z,24.30
2022-12-20T11:08:41.312Z,28.40
2022-12-20T11:11:36.857Z,22.00
2022-12-20T11:14:38.780Z,18.20
2022-12-20T11:17:37.858Z,17.70
2022-12-20T11:20:57.865Z,22.20
2022-12-20T11:23:59.854Z,27.20
2022-12-20T11:27:19.174Z,30.80
2022-12-20T11:30:27.864Z,24.70
2022-12-20T11:33:39.883Z,23.90
2022-12-20T11:37:05.855Z,23.10
2022-12-20T11:40:17.008Z,24.80
2022-12-20T11:43:26.872Z,19.70
2022-12-20T11:46:49.042Z,27.60
2022-12-20T11:49:51.846Z,26.70
2022-12-20T11:52:42.870Z,28.10
2022-12-20T11:55:21.877Z,28.30
2022-12-20T11:58:24.867Z,23.50
2022-12-20T12:01:27.925Z,20.20
2022-12-20T12:04:30.872Z,26.10
2022-12-20T12:07:35.846Z,17.30
2022-12-20T12:10:21.003Z,20.00
2022-12-20T12:13:33.128Z,20.80
2022-12-20T12:16:18.108Z,26.40
2022-12-20T12:19:14.859Z,25.90
2022-12-20T12:22:19.840Z,18.70
2022-12-20T12:25:17.899Z,20.20
2022-12-20T12:28:12.876Z,19.30
2022-12-20T12:31:17.904Z,23.50
2022-12-20T12:34:23.149Z,20.80
2022-12-20T12:37:36.944Z,23.10
2022-12-20T12:41:09.866Z,20.00
2022-12-20T12:44:09.956Z,23.70
2022-12-20T12:47:09.865Z,19.20
2022-12-20T12:50:06.846Z,23.00
2022-12-20T12:53:07.850Z,18.50
2022-12-20T12:56:34.641Z,20.00
2022-12-20T12:59:21.860Z,19.80
2022-12-20T13:02:18.109Z,16.40
2022-12-20T13:05:34.850Z,20.90
2022-12-20T13:08:24.993Z,21.80
2022-12-20T13:11:19.989Z,21.90
2022-12-20T13:13:55.125Z,18.50
2022-12-20T13:17:15.538Z,17.20
2022-12-20T13:19:43.962Z,17.90
2022-12-20T13:22:35.231Z,19.30
2022-12-20T13:25:43.863Z,20.00
2022-12-20T13:28:23.265Z,16.20
2022-12-20T13:31:18.910Z,19.70
2022-12-20T13:33:53.263Z,22.60
2022-12-20T13:36:47.835Z,17.20
2022-12-20T13:39:22.239Z,21.70
2022-12-20T13:42:29.102Z,21.60
2022-12-20T13:45:10.029Z,21.60
2022-12-20T13:48:07.718Z,22.20
2022-12-20T13:51:07.872Z,19.30
2022-12-20T13:54:09.869Z,21.90
2022-12-20T13:57:05.834Z,20.70
2022-12-20T14:00:07.094Z,21.80
2022-12-20T14:03:03.044Z,18.50
2022-12-20T14:05:57.833Z,20.50
2022-12-20T14:08:48.967Z,15.90
2022-12-20T14:11:37.911Z,17.30
2022-12-20T14:14:18.990Z,19.70
2022-12-20T14:17:26.844Z,17.80
2022-12-20T14:20:19.997Z,17.40
2022-12-20T14:23:12.834Z,17.40
2022-12-20T14:25:54.889Z,17.00
2022-12-20T14:28:52.865Z,22.40
2022-12-20T14:31:40.872Z,22.40
2022-12-20T14:34:18.089Z,21.40
2022-12-20T14:37:42.822Z,14.40
2022-12-20T14:40:18.026Z,21.10
2022-12-20T14:43:12.925Z,19.30
2022-12-20T14:46:32.058Z,23.40
2022-12-20T14:49:32.934Z,20.30
2022-12-20T14:52:24.807Z,21.90
2022-12-20T14:55:08.202Z,22.80
2022-12-20T14:58:06.846Z,19.90
2022-12-20T15:01:16.903Z,20.70
2022-12-20T15:04:06.892Z,20.50
2022-12-20T15:06:55.066Z,16.70
2022-12-20T15:09:43.006Z,21.40
2022-12-20T15:12:17.944Z,22.10
2022-12-20T15:15:27.753Z,22.80
2022-12-20T15:18:06.813Z,19.50
2022-12-20T15:21:07.928Z,22.20
2022-12-20T15:23:59.936Z,18.40
2022-12-20T15:26:41.827Z,19.70
2022-12-20T15:29:38.814Z,22.30
2022-12-20T15:32:37.453Z,22.60
2022-12-20T15:35:19.014Z,22.00
2022-12-20T15:38:13.814Z,14.10
2022-12-20T15:41:10.916Z,15.80
2022-12-20T15:44:08.892Z,12.00
2022-12-20T15:47:04.986Z,20.90
2022-12-20T15:49:52.954Z,21.30
2022-12-20T15:52:30.139Z,22.30
2022-12-20T15:55:18.852Z,23.90
2022-12-20T15:57:53.980Z,25.00
2022-12-20T16:00:42.812Z,15.60
2022-12-20T16:03:27.349Z,15.00
2022-12-20T16:06:20.300Z,22.70
2022-12-20T16:08:54.955Z,24.60
2022-12-20T16:11:42.823Z,27.00
2022-12-20T16:14:28.838Z,26.30
2022-12-20T16:17:22.825Z,24.80
2022-12-20T16:20:04.982Z,22.30
2022-12-20T16:22:59.829Z,21.50
2022-12-20T16:25:47.873Z,18.20
2022-12-20T16:28:22.937Z,17.60
2022-12-20T16:31:44.877Z,15.00
2022-12-20T16:34:39.880Z,19.00
2022-12-20T16:37:38.966Z,21.20
2022-12-20T16:40:26.958Z,26.50
2022-12-20T16:43:02.938Z,24.20
2022-12-20T16:45:50.867Z,21.60
2022-12-20T16:48:45.869Z,22.30
2022-12-20T16:51:45.802Z,23.70
2022-12-20T16:54:31.815Z,15.40
2022-12-20T16:57:26.860Z,25.40
2022-12-20T17:00:22.822Z,23.90
2022-12-20T17:03:10.990Z,25.40
2022-12-20T17:05:59.797Z,23.30
2022-12-20T17:08:53.069Z,24.00
2022-12-20T17:11:40.808Z,16.60
2022-12-20T17:14:26.847Z,20.70
2022-12-20T17:17:21.803Z,25.40
2022-12-20T17:20:16.898Z,22.60
2022-12-20T17:25:56.964Z,21.60
2022-12-20T17:28:45.010Z,19.00
2022-12-20T17:31:39.541Z,15.50
2022-12-20T17:34:36.833Z,23.90
2022-12-20T17:37:24.839Z,22.50
2022-12-20T17:40:38.902Z,21.40
2022-12-20T17:43:33.839Z,25.50
2022-12-20T17:46:28.956Z,26.40
2022-12-20T17:49:24.879Z,23.90
2022-12-20T17:52:12.911Z,24.10
2022-12-20T17:54:54.808Z,27.00
2022-12-20T17:57:49.802Z,21.50
2022-12-20T18:00:41.783Z,25.20
2022-12-20T18:04:01.117Z,24.50
2022-12-20T18:06:25.769Z,22.20
2022-12-20T18:09:25.782Z,21.80
2022-12-20T18:12:21.796Z,23.70
2022-12-20T18:15:16.776Z,20.70
2022-12-20T18:18:04.782Z,20.90
2022-12-20T18:21:00.779Z,21.50
2022-12-20T18:23:56.787Z,20.40
2022-12-20T18:26:53.385Z,20.80
2022-12-20T18:29:48.815Z,20.60
2022-12-20T18:32:43.788Z,18.10
2022-12-20T18:35:39.298Z,19.90
2022-12-20T18:38:33.990Z,22.30
2022-12-20T18:41:26.956Z,22.50
2022-12-20T18:44:14.516Z,22.60
2022-12-20T18:47:02.928Z,21.80
2022-12-20T18:49:44.925Z,20.70
2022-12-20T18:52:44.287Z,21.70
2022-12-20T18:55:34.778Z,20.50
2022-12-20T18:58:09.931Z,21.10
2022-12-20T19:01:05.299Z,22.90
2022-12-20T19:03:50.873Z,20.40
2022-12-20T19:06:45.805Z,20.10
2022-12-20T19:09:40.932Z,21.00
2022-12-20T19:12:39.990Z,22.50
2022-12-20T19:15:34.782Z,24.60
2022-12-20T19:18:29.772Z,21.10
2022-12-20T19:21:32.807Z,22.00
2022-12-20T19:24:28.056Z,23.70
2022-12-20T19:27:22.775Z,23.10
2022-12-20T19:30:17.781Z,23.00
2022-12-20T19:33:16.682Z,24.30
2022-12-20T19:36:06.981Z,23.50
2022-12-20T19:38:41.897Z,23.50
2022-12-20T19:41:32.805Z,24.30
2022-12-20T19:44:25.865Z,24.50
2022-12-20T19:47:06.733Z,28.90
2022-12-20T19:49:56.767Z,27.30
2022-12-20T19:52:53.832Z,24.00
2022-12-20T19:55:41.831Z,23.60
2022-12-20T19:58:16.887Z,22.60
2022-12-20T20:01:04.795Z,21.50
2022-12-20T20:03:41.214Z,21.40
2022-12-20T20:06:28.791Z,22.80
2022-12-20T20:09:05.465Z,21.70
2022-12-20T20:11:53.755Z,20.70
2022-12-20T20:14:29.054Z,22.30
2022-12-20T20:17:18.776Z,19.90
2022-12-20T20:19:54.101Z,22.50
2022-12-20T20:22:42.162Z,21.60
2022-12-20T20:25:21.879Z,23.60
2022-12-20T20:28:17.747Z,22.70
2022-12-20T20:31:13.992Z,23.20
2022-12-20T20:34:07.839Z,23.00
2022-12-20T20:36:49.976Z,22.40
2022-12-20T20:39:45.850Z,21.90
2022-12-20T20:42:41.501Z,24.10
2022-12-20T20:45:37.958Z,24.50
2022-12-20T20:48:33.857Z,24.10
2022-12-20T20:51:28.742Z,20.30
2022-12-20T20:54:24.274Z,18.20
2022-12-20T20:57:14.384Z,23.20
2022-12-20T20:59:48.941Z,18.40
2022-12-20T21:02:36.863Z,19.60
2022-12-20T21:08:26.021Z,23.10
2022-12-20T21:11:14.931Z,22.00
2022-12-20T21:13:56.772Z,25.20
2022-12-20T21:16:53.775Z,22.80
2022-12-20T21:19:48.777Z,19.80
2022-12-20T21:22:36.928Z,20.70
2022-12-20T21:25:19.791Z,25.70
2022-12-20T21:28:20.974Z,25.00
2022-12-20T21:31:12.831Z,25.50
2022-12-20T21:33:54.738Z,23.50
2022-12-20T21:36:49.715Z,20.30
2022-12-20T21:39:37.741Z,20.80
2022-12-20T21:42:12.892Z,20.90
2022-12-20T21:45:00.920Z,20.20
2022-12-20T21:47:36.030Z,20.50
2022-12-20T21:50:24.982Z,20.40
2022-12-20T21:53:00.285Z,21.00
2022-12-20T21:55:48.906Z,20.90
2022-12-20T21:58:31.434Z,22.80
2022-12-20T22:01:28.162Z,16.00
2022-12-20T22:04:19.552Z,14.90
2022-12-20T22:06:57.516Z,20.40
2022-12-20T22:09:52.973Z,21.20
2022-12-20T22:12:47.876Z,19.70
2022-12-20T22:15:42.728Z,19.90
2022-12-20T22:18:40.752Z,21.50
2022-12-20T22:21:44.717Z,22.70
2022-12-20T22:24:39.760Z,18.50
2022-12-20T22:27:34.729Z,20.00
2022-12-20T22:30:29.781Z,18.20
2022-12-20T22:33:24.724Z,18.90
2022-12-20T22:36:20.740Z,15.80
2022-12-20T22:39:15.729Z,22.20
2022-12-20T22:42:11.760Z,20.80
2022-12-20T22:45:00.763Z,19.20
2022-12-20T22:50:40.651Z,16.20
2022-12-20T22:53:16.071Z,17.10
2022-12-20T22:56:03.705Z,18.00
2022-12-20T22:58:38.784Z,18.60
2022-12-20T23:01:27.754Z,17.90
2022-12-20T23:04:03.000Z,16.90
2022-12-20T23:06:57.676Z,17.60
2022-12-20T23:09:45.658Z,16.80
2022-12-20T23:12:39.545Z,19.30
2022-12-20T23:15:49.664Z,17.50
2022-12-20T23:18:44.866Z,17.50
2022-12-20T23:21:59.812Z,17.60
2022-12-20T23:24:55.653Z,14.80
2022-12-20T23:27:43.640Z,17.90
2022-12-20T23:30:20.781Z,21.20
2022-12-20T23:33:08.632Z,21.80
2022-12-20T23:35:56.649Z,18.10
2022-12-20T23:38:42.772Z,20.60
2022-12-20T23:41:30.649Z,19.50
2022-12-20T23:44:05.837Z,21.00
2022-12-20T23:46:53.659Z,19.70
2022-12-20T23:49:27.931Z,20.70
2022-12-20T23:52:15.636Z,19.20
2022-12-20T23:54:50.776Z,19.80
2022-12-20T23:57:45.627Z,21.30
